createdAt,value
2023-05-04T00:02:20.191Z,5.60
2023-05-04T00:04:47.169Z,5.10
2023-05-04T00:07:14.066Z,5.63
2023-05-04T00:09:40.986Z,5.70
2023-05-04T00:12:08.279Z,5.93
2023-05-04T00:14:35.937Z,5.63
2023-05-04T00:17:06.313Z,5.15
2023-05-04T00:19:34.727Z,6.32
2023-05-04T00:22:02.053Z,5.68
2023-05-04T00:24:29.261Z,5.95
2023-05-04T00:26:56.117Z,5.70
2023-05-04T00:29:23.113Z,5.78
2023-05-04T00:31:50.062Z,6.82
2023-05-04T00:34:17.206Z,5.78
2023-05-04T00:36:44.111Z,6.40
2023-05-04T00:39:11.011Z,6.00
2023-05-04T00:41:37.930Z,5.95
2023-05-04T00:44:06.642Z,6.28
2023-05-04T00:46:33.642Z,5.50
2023-05-04T00:49:00.583Z,5.97
2023-05-04T00:51:27.526Z,5.85
2023-05-04T00:53:55.159Z,6.13
2023-05-04T00:56:25.881Z,6.38
2023-05-04T00:58:54.494Z,6.38
2023-05-04T01:01:22.498Z,6.70
2023-05-04T01:03:53.694Z,6.50
2023-05-04T01:06:35.934Z,6.47
2023-05-04T01:09:25.011Z,6.07
2023-05-04T01:12:12.493Z,6.13
2023-05-04T01:14:39.396Z,6.65
2023-05-04T01:17:07.735Z,7.05
2023-05-04T01:19:34.747Z,6.40
2023-05-04T01:22:03.970Z,6.50
2023-05-04T01:24:30.931Z,6.75
2023-05-04T01:27:09.925Z,7.13
2023-05-04T01:29:58.487Z,6.70
2023-05-04T01:32:27.393Z,6.18
2023-05-04T01:34:54.580Z,5.75
2023-05-04T01:37:21.551Z,6.75
2023-05-04T01:39:48.400Z,7.00
2023-05-04T01:42:15.286Z,5.90
2023-05-04T01:44:43.721Z,6.28
2023-05-04T01:47:10.824Z,6.32
2023-05-04T01:49:37.665Z,6.50
2023-05-04T01:52:04.989Z,5.88
2023-05-04T01:54:31.939Z,6.60
2023-05-04T01:56:58.831Z,6.22
2023-05-04T01:59:28.057Z,5.72
2023-05-04T02:01:55.827Z,5.95
2023-05-04T02:04:23.864Z,5.85
2023-05-04T02:06:52.049Z,6.65
2023-05-04T02:09:19.209Z,6.45
2023-05-04T02:11:46.055Z,6.60
2023-05-04T02:14:13.240Z,6.65
2023-05-04T02:16:40.355Z,6.25
2023-05-04T02:19:07.267Z,6.38
2023-05-04T02:21:35.591Z,6.00
2023-05-04T02:24:04.927Z,5.80
2023-05-04T02:26:31.955Z,7.25
2023-05-04T02:28:58.912Z,6.50
2023-05-04T02:31:25.849Z,6.47
2023-05-04T02:33:52.833Z,6.45
2023-05-04T02:36:19.682Z,6.40
2023-05-04T02:38:46.774Z,7.10
2023-05-04T02:41:13.641Z,5.97
2023-05-04T02:43:40.558Z,6.60
2023-05-04T02:46:07.492Z,6.55
2023-05-04T02:48:34.417Z,6.85
2023-05-04T02:51:01.273Z,6.68
2023-05-04T02:53:28.140Z,6.55
2023-05-04T02:55:55.022Z,6.03
2023-05-04T02:58:22.144Z,6.57
2023-05-04T03:00:53.051Z,6.53
2023-05-04T03:03:19.965Z,7.10
2023-05-04T03:05:46.928Z,6.97
2023-05-04T03:08:13.824Z,5.72
2023-05-04T03:10:40.724Z,6.70
2023-05-04T03:13:07.694Z,6.38
2023-05-04T03:15:34.961Z,7.10
2023-05-04T03:18:01.980Z,5.90
2023-05-04T03:20:29.813Z,6.65
2023-05-04T03:22:57.792Z,6.45
2023-05-04T03:25:26.184Z,5.90
2023-05-04T03:27:53.121Z,6.20
2023-05-04T03:30:20.164Z,6.50
2023-05-04T03:32:48.984Z,6.72
2023-05-04T03:35:24.111Z,6.13
2023-05-04T03:37:53.480Z,6.72
2023-05-04T03:40:23.262Z,6.85
2023-05-04T03:42:52.776Z,6.43
2023-05-04T03:45:20.584Z,6.30
2023-05-04T03:47:47.538Z,6.03
2023-05-04T03:50:14.586Z,6.15
2023-05-04T03:52:42.723Z,6.28
2023-05-04T03:55:10.969Z,6.50
2023-05-04T03:57:37.928Z,6.80
2023-05-04T04:00:05.963Z,6.03
2023-05-04T04:02:42.114Z,6.63
2023-05-04T04:05:15.855Z,6.90
2023-05-04T04:07:43.150Z,6.63
2023-05-04T04:10:10.551Z,6.45
2023-05-04T04:12:37.456Z,6.15
2023-05-04T04:15:04.648Z,6.25
2023-05-04T04:17:31.638Z,6.47
2023-05-04T04:19:58.568Z,7.25
2023-05-04T04:22:26.370Z,6.57
2023-05-04T04:24:53.282Z,6.18
2023-05-04T04:27:20.712Z,7.03
2023-05-04T04:29:47.613Z,6.20
2023-05-04T04:32:14.696Z,5.85
2023-05-04T04:34:41.674Z,6.43
2023-05-04T04:37:08.661Z,6.32
2023-05-04T04:39:35.791Z,6.88
2023-05-04T04:42:02.766Z,5.85
2023-05-04T04:44:29.865Z,6.32
2023-05-04T04:46:56.914Z,6.40
2023-05-04T04:49:24.036Z,6.30
2023-05-04T04:51:51.084Z,6.07
2023-05-04T04:54:17.969Z,6.80
2023-05-04T04:56:46.232Z,6.50
2023-05-04T04:59:14.082Z,6.07
2023-05-04T05:01:42.363Z,6.47
2023-05-04T05:04:09.325Z,6.43
2023-05-04T05:06:36.845Z,6.80
2023-05-04T05:09:03.982Z,7.05
2023-05-04T05:11:31.332Z,6.35
2023-05-04T05:13:59.981Z,6.63
2023-05-04T05:16:27.148Z,6.63
2023-05-04T05:18:54.459Z,6.07
2023-05-04T05:21:21.336Z,5.78
2023-05-04T05:23:48.357Z,5.70
2023-05-04T05:26:15.262Z,5.97
2023-05-04T05:28:42.244Z,6.45
2023-05-04T05:31:09.927Z,6.57
2023-05-04T05:33:37.046Z,5.50
2023-05-04T05:36:05.553Z,6.22
2023-05-04T05:38:32.604Z,6.15
2023-05-04T05:40:59.731Z,5.70
2023-05-04T05:43:27.100Z,5.70
2023-05-04T05:45:55.527Z,6.15
2023-05-04T05:48:22.456Z,5.65
2023-05-04T05:50:49.364Z,5.45
2023-05-04T05:53:16.434Z,5.55
2023-05-04T05:55:43.315Z,6.10
2023-05-04T05:58:10.362Z,5.90
2023-05-04T06:00:37.587Z,5.53
2023-05-04T06:03:04.634Z,5.55
2023-05-04T06:05:33.716Z,5.10
2023-05-04T06:08:00.644Z,4.90
2023-05-04T06:10:27.735Z,5.10
2023-05-04T06:12:54.664Z,4.70
2023-05-04T06:15:21.563Z,4.97
2023-05-04T06:17:49.920Z,4.47
2023-05-04T06:20:17.242Z,4.57
2023-05-04T06:22:44.257Z,4.82
2023-05-04T06:25:11.654Z,4.47
2023-05-04T06:27:38.634Z,4.25
2023-05-04T06:30:06.972Z,4.60
2023-05-04T06:32:35.209Z,3.90
2023-05-04T06:35:02.825Z,4.05
2023-05-04T06:37:29.820Z,4.18
2023-05-04T06:39:57.230Z,4.00
2023-05-04T06:42:24.181Z,3.80
2023-05-04T06:45:04.263Z,3.78
2023-05-04T06:47:31.359Z,4.10
2023-05-04T06:49:58.356Z,4.20
2023-05-04T06:52:25.482Z,4.35
2023-05-04T06:54:53.003Z,3.70
2023-05-04T06:57:20.026Z,3.72
2023-05-04T06:59:46.926Z,4.15
2023-05-04T07:02:13.828Z,3.45
2023-05-04T07:04:40.858Z,4.47
2023-05-04T07:07:07.733Z,4.32
2023-05-04T07:09:35.171Z,4.63
2023-05-04T07:12:02.999Z,4.57
2023-05-04T07:14:29.867Z,5.05
2023-05-04T07:16:56.811Z,4.70
2023-05-04T07:19:23.685Z,4.47
2023-05-04T07:21:50.722Z,4.90
2023-05-04T07:24:17.951Z,5.00
2023-05-04T07:26:44.851Z,4.20
2023-05-04T07:29:20.639Z,4.55
2023-05-04T07:31:52.104Z,4.45
2023-05-04T07:34:19.265Z,4.18
2023-05-04T07:36:47.258Z,4.38
2023-05-04T07:39:16.377Z,4.45
2023-05-04T07:41:43.243Z,4.90
2023-05-04T07:44:11.463Z,4.22
2023-05-04T07:46:38.917Z,4.53
2023-05-04T07:49:06.075Z,5.05
2023-05-04T07:51:32.938Z,4.50
2023-05-04T07:54:00.055Z,4.60
2023-05-04T07:56:27.037Z,4.43
2023-05-04T07:58:53.996Z,4.80
2023-05-04T08:01:21.369Z,4.15
2023-05-04T08:03:48.608Z,4.43
2023-05-04T08:06:15.862Z,4.10
2023-05-04T08:08:44.495Z,4.13
2023-05-04T08:11:20.138Z,4.38
2023-05-04T08:13:48.716Z,4.43
2023-05-04T08:16:15.828Z,3.65
2023-05-04T08:18:42.942Z,4.10
2023-05-04T08:21:12.729Z,4.03
2023-05-04T08:23:56.417Z,4.03
2023-05-04T08:26:23.881Z,3.90
2023-05-04T08:28:50.856Z,3.65
2023-05-04T08:31:21.469Z,3.90
2023-05-04T08:33:48.482Z,3.67
2023-05-04T08:36:15.664Z,3.00
2023-05-04T08:38:42.617Z,3.70
2023-05-04T08:41:11.087Z,3.42
2023-05-04T08:43:38.313Z,3.67
2023-05-04T08:46:06.676Z,3.50
2023-05-04T08:48:35.370Z,3.33
2023-05-04T08:51:03.027Z,3.80
2023-05-04T08:53:30.777Z,3.22
2023-05-04T08:55:59.161Z,3.67
2023-05-04T08:58:26.177Z,3.67
2023-05-04T09:00:53.447Z,3.83
2023-05-04T09:03:21.258Z,2.90
2023-05-04T09:05:50.750Z,3.70
2023-05-04T09:08:17.857Z,3.35
2023-05-04T09:10:44.778Z,3.65
2023-05-04T09:13:12.213Z,2.97
2023-05-04T09:15:39.141Z,3.10
2023-05-04T09:18:07.640Z,3.10
2023-05-04T09:21:01.024Z,3.65
2023-05-04T09:23:28.009Z,3.20
2023-05-04T09:25:55.464Z,3.63
2023-05-04T09:28:35.742Z,3.95
2023-05-04T09:31:02.953Z,3.95
2023-05-04T09:33:30.039Z,4.45
2023-05-04T09:35:58.296Z,4.15
2023-05-04T09:38:28.280Z,3.50
2023-05-04T09:40:55.313Z,3.35
2023-05-04T09:43:23.297Z,3.47
2023-05-04T09:45:50.344Z,3.55
2023-05-04T09:48:29.129Z,3.70
2023-05-04T09:50:56.657Z,3.47
2023-05-04T09:53:27.619Z,3.65
2023-05-04T09:56:06.544Z,3.28
2023-05-04T09:58:35.025Z,3.92
2023-05-04T10:01:02.124Z,3.60
2023-05-04T10:03:29.551Z,3.13
2023-05-04T10:06:00.800Z,3.20
2023-05-04T10:08:28.589Z,3.20
2023-05-04T10:10:55.599Z,3.78
2023-05-04T10:13:23.172Z,3.83
2023-05-04T10:16:01.705Z,3.50
2023-05-04T10:18:45.242Z,3.88
2023-05-04T10:21:32.273Z,3.47
2023-05-04T10:24:23.264Z,3.58
2023-05-04T10:27:12.205Z,4.05
2023-05-04T10:29:39.157Z,3.63
2023-05-04T10:32:08.032Z,3.90
2023-05-04T10:34:35.372Z,4.00
2023-05-04T10:37:03.296Z,3.58
2023-05-04T10:39:31.596Z,3.42
2023-05-04T10:42:08.824Z,3.30
2023-05-04T10:44:55.366Z,3.28
2023-05-04T10:47:33.802Z,3.55
2023-05-04T10:50:04.850Z,3.67
2023-05-04T10:52:33.132Z,3.42
2023-05-04T10:55:01.341Z,3.30
2023-05-04T10:57:29.418Z,3.65
2023-05-04T10:59:59.863Z,2.95
2023-05-04T11:02:34.699Z,3.05
2023-05-04T11:05:13.271Z,3.05
2023-05-04T11:07:42.367Z,3.00
2023-05-04T11:10:20.169Z,3.10
2023-05-04T11:12:47.097Z,2.90
2023-05-04T11:15:14.087Z,3.00
2023-05-04T11:17:51.752Z,2.85
2023-05-04T11:20:21.808Z,2.67
2023-05-04T11:22:50.154Z,2.60
2023-05-04T11:25:17.526Z,2.75
2023-05-04T11:27:44.552Z,3.10
2023-05-04T11:30:11.933Z,2.40
2023-05-04T11:32:43.793Z,2.55
2023-05-04T11:35:18.729Z,2.50
2023-05-04T11:37:46.832Z,1.95
2023-05-04T11:40:15.244Z,2.45
2023-05-04T11:42:42.928Z,2.20
2023-05-04T11:45:20.726Z,2.28
2023-05-04T11:47:48.442Z,1.95
2023-05-04T11:50:16.982Z,2.63
2023-05-04T11:52:44.468Z,2.20
2023-05-04T11:55:12.293Z,2.33
2023-05-04T11:57:39.759Z,2.30
2023-05-04T12:00:08.130Z,2.38
2023-05-04T12:02:35.422Z,2.50
2023-05-04T12:05:02.509Z,2.65
2023-05-04T12:07:29.544Z,2.03
2023-05-04T12:09:57.039Z,2.70
2023-05-04T12:12:23.896Z,2.78
2023-05-04T12:14:52.087Z,2.10
2023-05-04T12:17:20.543Z,2.22
2023-05-04T12:19:57.145Z,1.92
2023-05-04T12:22:30.562Z,1.75
2023-05-04T12:24:59.186Z,1.88
2023-05-04T12:27:26.806Z,2.15
2023-05-04T12:29:53.876Z,2.00
2023-05-04T12:32:21.508Z,1.88
2023-05-04T12:34:48.480Z,1.88
2023-05-04T12:37:18.855Z,1.92
2023-05-04T12:39:46.464Z,2.22
2023-05-04T12:42:13.439Z,1.90
2023-05-04T12:44:40.342Z,1.70
2023-05-04T12:47:07.368Z,2.08
2023-05-04T12:49:34.346Z,1.83
2023-05-04T12:52:01.387Z,1.80
2023-05-04T12:54:28.431Z,1.80
2023-05-04T12:56:55.404Z,1.98
2023-05-04T12:59:23.608Z,2.30
2023-05-04T13:01:50.789Z,1.88
2023-05-04T13:04:17.851Z,1.95
2023-05-04T13:06:46.945Z,1.90
2023-05-04T13:09:15.184Z,1.70
2023-05-04T13:11:42.193Z,1.98
2023-05-04T13:14:09.239Z,1.63
2023-05-04T13:16:37.789Z,1.92
2023-05-04T13:19:04.987Z,1.88
2023-05-04T13:21:32.140Z,2.17
2023-05-04T13:23:59.396Z,1.50
2023-05-04T13:26:26.577Z,1.90
2023-05-04T13:28:53.526Z,2.03
2023-05-04T13:31:20.768Z,1.95
2023-05-04T13:33:50.513Z,1.98
2023-05-04T13:36:18.238Z,1.70
2023-05-04T13:38:45.166Z,1.80
2023-05-04T13:41:12.176Z,1.83
2023-05-04T13:43:39.061Z,2.08
2023-05-04T13:46:06.112Z,1.70
2023-05-04T13:48:34.135Z,1.88
2023-05-04T13:51:03.631Z,1.80
2023-05-04T13:53:30.580Z,1.60
2023-05-04T13:55:57.520Z,2.00
2023-05-04T13:58:24.517Z,1.60
2023-05-04T14:00:51.524Z,1.98
2023-05-04T14:03:18.454Z,1.65
2023-05-04T14:05:45.668Z,2.28
2023-05-04T14:08:13.576Z,1.88
2023-05-04T14:10:40.544Z,2.10
2023-05-04T14:13:07.563Z,1.90
2023-05-04T14:15:34.550Z,1.90
2023-05-04T14:18:01.725Z,1.83
2023-05-04T14:20:29.329Z,1.85
2023-05-04T14:22:56.750Z,2.40
2023-05-04T14:25:23.765Z,2.20
2023-05-04T14:27:52.188Z,1.90
2023-05-04T14:30:19.218Z,2.03
2023-05-04T14:32:46.330Z,1.92
2023-05-04T14:35:13.622Z,1.90
2023-05-04T14:37:40.665Z,1.63
2023-05-04T14:40:08.704Z,2.10
2023-05-04T14:42:36.297Z,1.98
2023-05-04T14:45:03.444Z,1.92
2023-05-04T14:47:30.421Z,2.00
2023-05-04T14:49:57.625Z,2.30
2023-05-04T14:52:24.996Z,1.88
2023-05-04T14:54:52.264Z,2.50
2023-05-04T14:57:19.243Z,1.90
2023-05-04T14:59:46.204Z,1.80
2023-05-04T15:02:13.251Z,2.00
2023-05-04T15:04:40.091Z,1.83
2023-05-04T15:07:08.344Z,2.45
2023-05-04T15:09:35.682Z,2.13
2023-05-04T15:12:03.599Z,1.92
2023-05-04T15:14:30.568Z,2.13
2023-05-04T15:16:57.502Z,2.17
2023-05-04T15:19:24.453Z,2.30
2023-05-04T15:21:51.990Z,2.13
2023-05-04T15:24:18.934Z,2.85
2023-05-04T15:26:45.785Z,2.00
2023-05-04T15:29:12.676Z,2.13
2023-05-04T15:31:39.658Z,2.10
2023-05-04T15:34:06.674Z,2.03
2023-05-04T15:36:40.834Z,2.20
2023-05-04T15:39:08.706Z,2.33
2023-05-04T15:41:38.046Z,1.92
2023-05-04T15:44:09.216Z,1.98
2023-05-04T15:46:36.325Z,2.20
2023-05-04T15:49:03.361Z,2.08
2023-05-04T15:51:32.177Z,2.28
2023-05-04T15:53:59.177Z,2.08
2023-05-04T15:56:26.211Z,2.00
2023-05-04T15:58:53.215Z,2.50
2023-05-04T16:01:20.155Z,2.40
2023-05-04T16:03:47.533Z,2.47
2023-05-04T16:06:16.013Z,2.38
2023-05-04T16:08:42.896Z,2.35
2023-05-04T16:11:09.842Z,2.15
2023-05-04T16:13:36.854Z,2.28
2023-05-04T16:16:04.204Z,2.10
2023-05-04T16:18:31.138Z,2.20
2023-05-04T16:20:58.081Z,2.55
2023-05-04T16:23:25.090Z,2.33
2023-05-04T16:25:51.996Z,2.00
2023-05-04T16:28:18.892Z,1.92
2023-05-04T16:30:48.372Z,2.50
2023-05-04T16:33:15.350Z,2.30
2023-05-04T16:35:42.266Z,2.25
2023-05-04T16:38:09.158Z,2.95
2023-05-04T16:40:36.011Z,2.40
2023-05-04T16:43:05.379Z,2.30
2023-05-04T16:45:33.033Z,2.30
2023-05-04T16:48:00.993Z,2.75
2023-05-04T16:50:27.975Z,1.98
2023-05-04T16:52:54.901Z,2.03
2023-05-04T16:55:21.956Z,1.98
2023-05-04T16:57:49.342Z,2.30
2023-05-04T17:00:17.239Z,2.30
2023-05-04T17:02:44.482Z,2.30
2023-05-04T17:05:11.647Z,2.55
2023-05-04T17:07:43.473Z,2.55
2023-05-04T17:10:11.886Z,2.30
2023-05-04T17:12:39.862Z,2.55
2023-05-04T17:15:07.430Z,2.78
2023-05-04T17:17:34.355Z,2.38
2023-05-04T17:20:01.601Z,2.28
2023-05-04T17:22:28.453Z,2.75
2023-05-04T17:24:55.442Z,2.63
2023-05-04T17:27:22.358Z,3.00
2023-05-04T17:29:49.533Z,2.70
2023-05-04T17:32:16.506Z,2.78
2023-05-04T17:34:43.475Z,3.00
2023-05-04T17:37:10.437Z,2.72
2023-05-04T17:39:37.354Z,2.85
2023-05-04T17:42:04.413Z,2.80
2023-05-04T17:44:32.869Z,2.80
2023-05-04T17:47:00.278Z,2.55
2023-05-04T17:49:27.205Z,3.17
2023-05-04T17:51:54.162Z,3.05
2023-05-04T17:54:21.072Z,2.55
2023-05-04T17:56:47.942Z,3.00
2023-05-04T17:59:16.809Z,3.10
2023-05-04T18:01:43.961Z,2.70
2023-05-04T18:04:10.974Z,3.55
2023-05-04T18:06:40.575Z,2.70
2023-05-04T18:09:07.438Z,3.00
2023-05-04T18:11:34.391Z,3.17
2023-05-04T18:14:01.552Z,3.38
2023-05-04T18:16:28.658Z,3.42
2023-05-04T18:18:57.720Z,2.92
2023-05-04T18:21:26.188Z,3.13
2023-05-04T18:23:53.237Z,2.95
2023-05-04T18:26:22.629Z,2.70
2023-05-04T18:28:49.809Z,3.60
2023-05-04T18:31:17.513Z,3.33
2023-05-04T18:33:44.629Z,2.78
2023-05-04T18:36:12.089Z,3.20
2023-05-04T18:38:39.067Z,2.80
2023-05-04T18:41:06.877Z,3.20
2023-05-04T18:43:42.339Z,3.65
2023-05-04T18:46:09.429Z,3.72
2023-05-04T18:48:46.711Z,3.15
2023-05-04T18:51:20.922Z,3.80
2023-05-04T18:53:51.072Z,3.92
2023-05-04T18:56:18.309Z,3.70
2023-05-04T18:58:45.474Z,3.53
2023-05-04T19:01:13.444Z,3.22
2023-05-04T19:03:41.464Z,3.83
2023-05-04T19:06:22.730Z,3.17
2023-05-04T19:08:55.170Z,3.50
2023-05-04T19:11:22.767Z,3.60
2023-05-04T19:13:52.401Z,3.50
2023-05-04T19:16:20.902Z,3.58
2023-05-04T19:18:49.213Z,3.80
2023-05-04T19:21:18.407Z,4.05
2023-05-04T19:23:47.528Z,3.35
2023-05-04T19:26:18.351Z,3.40
2023-05-04T19:28:46.177Z,7.22
2023-05-04T19:31:13.517Z,4.10
2023-05-04T19:33:47.986Z,3.60
2023-05-04T19:36:16.296Z,4.40
2023-05-04T19:38:43.726Z,3.55
2023-05-04T19:41:10.682Z,3.33
2023-05-04T19:43:38.891Z,3.17
2023-05-04T19:46:06.185Z,3.47
2023-05-04T19:48:33.205Z,3.67
2023-05-04T19:51:00.177Z,3.05
2023-05-04T19:53:27.286Z,2.83
2023-05-04T19:55:55.982Z,2.83
2023-05-04T19:58:26.077Z,2.65
2023-05-04T20:00:53.222Z,2.92
2023-05-04T20:03:20.566Z,2.70
2023-05-04T20:05:47.648Z,2.97
2023-05-04T20:08:14.728Z,2.65
2023-05-04T20:10:41.607Z,2.60
2023-05-04T20:13:08.643Z,2.47
2023-05-04T20:15:44.620Z,2.42
2023-05-04T20:18:14.181Z,1.80
2023-05-04T20:20:41.153Z,2.30
2023-05-04T20:23:08.101Z,2.00
2023-05-04T20:25:38.914Z,2.90
2023-05-04T20:28:08.511Z,2.30
2023-05-04T20:30:35.983Z,2.15
2023-05-04T20:33:07.243Z,2.33
2023-05-04T20:35:36.285Z,2.07
2023-05-04T20:38:03.183Z,2.20
2023-05-04T20:40:30.072Z,2.30
2023-05-04T20:42:59.596Z,2.20
2023-05-04T20:45:26.574Z,2.42
2023-05-04T20:47:53.506Z,2.40
2023-05-04T20:50:20.554Z,2.30
2023-05-04T20:52:47.629Z,1.77
2023-05-04T20:55:15.090Z,2.60
2023-05-04T20:57:41.931Z,1.85
2023-05-04T21:00:09.467Z,2.30
2023-05-04T21:02:36.835Z,2.38
2023-05-04T21:05:03.973Z,2.25
2023-05-04T21:07:31.361Z,1.95
2023-05-04T21:09:58.747Z,2.30
2023-05-04T21:12:26.009Z,1.98
2023-05-04T21:14:52.969Z,2.28
2023-05-04T21:17:19.940Z,2.00
2023-05-04T21:19:46.821Z,2.20
2023-05-04T21:22:17.615Z,2.25
2023-05-04T21:24:46.306Z,2.00
2023-05-04T21:27:13.376Z,2.75
2023-05-04T21:29:40.408Z,2.00
2023-05-04T21:32:07.311Z,2.30
2023-05-04T21:34:34.192Z,2.05
2023-05-04T21:37:01.121Z,2.22
2023-05-04T21:39:27.958Z,1.92
2023-05-04T21:41:55.308Z,1.70
2023-05-04T21:44:22.235Z,2.05
2023-05-04T21:46:49.239Z,2.00
2023-05-04T21:49:16.298Z,2.35
2023-05-04T21:51:43.271Z,2.42
2023-05-04T21:54:10.194Z,2.22
2023-05-04T21:56:37.225Z,1.70
2023-05-04T21:59:04.121Z,2.17
2023-05-04T22:01:31.015Z,2.20
2023-05-04T22:03:58.052Z,2.05
2023-05-04T22:06:25.082Z,2.05
2023-05-04T22:08:51.974Z,2.42
2023-05-04T22:11:18.834Z,2.20
2023-05-04T22:13:45.789Z,2.58
2023-05-04T22:16:12.685Z,2.28
2023-05-04T22:18:39.584Z,2.30
2023-05-04T22:21:06.682Z,2.15
2023-05-04T22:23:33.609Z,2.47
2023-05-04T22:26:00.459Z,2.35
2023-05-04T22:28:29.146Z,2.13
2023-05-04T22:30:56.760Z,2.55
2023-05-04T22:33:23.759Z,2.42
2023-05-04T22:35:50.849Z,2.50
2023-05-04T22:38:17.862Z,2.70
2023-05-04T22:40:44.871Z,2.30
2023-05-04T22:43:12.872Z,2.40
2023-05-04T22:45:41.883Z,2.60
2023-05-04T22:48:08.977Z,2.22
2023-05-04T22:50:36.103Z,2.13
2023-05-04T22:53:03.000Z,2.40
2023-05-04T22:55:30.314Z,2.05
2023-05-04T22:57:57.260Z,2.75
2023-05-04T23:00:24.368Z,2.35
2023-05-04T23:02:51.362Z,2.28
2023-05-04T23:05:18.485Z,2.40
2023-05-04T23:07:45.358Z,2.05
2023-05-04T23:10:12.327Z,2.40
2023-05-04T23:12:39.325Z,2.53
2023-05-04T23:15:07.172Z,2.10
2023-05-04T23:17:34.354Z,2.72
2023-05-04T23:20:01.488Z,2.08
2023-05-04T23:22:28.395Z,1.83
2023-05-04T23:24:55.304Z,2.53
2023-05-04T23:27:22.238Z,2.78
2023-05-04T23:29:49.108Z,2.45
2023-05-04T23:32:16.022Z,2.75
2023-05-04T23:34:43.376Z,2.72
2023-05-04T23:37:10.267Z,2.60
2023-05-04T23:39:37.144Z,2.40
2023-05-04T23:42:04.042Z,2.42
2023-05-04T23:44:30.903Z,2.42
2023-05-04T23:46:57.823Z,2.80
2023-05-04T23:49:24.674Z,2.83
2023-05-04T23:51:51.528Z,2.60
2023-05-04T23:54:18.378Z,2.47
2023-05-04T23:56:45.247Z,2.72
2023-05-04T23:59:12.121Z,2.28
